Archival Weather

Chicago O'Hare International

Chicago, Illinois (KORD)

Report from: Friday, March 30, 2012 6:30 AM CDT
Current time: Wednesday, May 29, 2024 3:32 AM CDT

Current weather – Weather history – Daily summaries
Weather forecast

Present weatherLight rain
Temperature9.0°C (48.2°F)
Wind chill6.3°C (43.3°F)
Dew point4.0°C (39.2°F)
Winds 10 kts (5.1 m/s, 11.5 mph) East-Southeast (120°)
Visibility9 mi. (14.5 km)
Clouds Few clouds 5,500 ft. (1,676 m)
Scattered clouds 7,000 ft. (2,134 m)
Ceiling: Overcast 8,500 ft. (2,591 m)
Altimeter29.75 in.Hg (1007 mB)
Precipitiation0.06 in. (2 mm)
Precip. events Thunderstorm ended 11:26 AM
Rain began 10:54 AM
Relative humidity71 %
Density altitude-402 ft. (-122 m)
Remarks System requires maintenance
Special weather observation
Automated weather observing station with precipitation discriminator
Cumulonimbus clouds observed distant west
Flight conditions Visual Meteorological Conditions
Raw data2012-03-30 11:30 KORD 301130Z 12010KT 9SM -RA FEW055 SCT070 OVC085 09/04 A2975 RMK AO2 TSE26RAB1054 CB DSNT W P0006 $ SPECI
An error has occurred. This application may no longer respond until reloaded. Reload 🗙